Khania/Souda, Greece
Current Conditions -  °F | °C
As of 5:50 PM on Saturday 25 Oct 2014 (Local Time) from LGSA Reporting Station
Scattered Clouds Scattered Clouds  
Wind Chill: 68°   Ceiling: Unl
Heat Index: 68°   Visibility: 6mi
Dew Point: 52°   Wind: 14mph
Humidity: 56%   Direction: 290°WNW
Pressure: 29.85"   Gusts: NA
Location:  35.53°N, 24.15°E
Report Text: LGSA 251450Z 29012KT 9999 FEW018TCU SCT025 20/11 Q1011
Loading
Personal Weather Stations






























Interactive Weather Map
Tropical Storm Tracking
New forecast layout! Learn more

10-Day Weather Forecast

Advertisements
Track Severe Weather on mobile